<?xml version="1.0" encoding="UTF-8" standalone="no" ?>
<gpx xmlns="http://www.topografix.com/GPX/1/1" xmlns:xsi="http://www.w3.org/2001/XMLSchema-instance" xsi:schemaLocation="http://www.topografix.com/GPX/1/1 http://www.topografix.com/GPX/1/1/gpx.xsd" version="1.1" creator="VisuGPX - https://www.visugpx.com">
  <metadata>
    <name>LES CARROZ - Les Communaux</name>
    <desc><![CDATA[LES CARROZ - Les Communaux
Facile]]></desc>
  </metadata>
  <trk>
    <name><![CDATA[14 juin 2011 18:43:28]]></name>
    <cmt><![CDATA[14 juin 2011 18:43:28]]></cmt>
    <trkseg>
      <trkpt lat="46.02703" lon="6.63447">
        <ele>113</ele>
        <time>2011-06-14T16:44:44Z</time>
      </trkpt>
      <trkpt lat="46.02865" lon="6.63682">
        <ele>787</ele>
        <time>2011-06-14T16:44:52Z</time>
      </trkpt>
      <trkpt lat="46.02796" lon="6.63632">
        <ele>991</ele>
        <time>2011-06-14T16:45:24Z</time>
      </trkpt>
      <trkpt lat="46.02861" lon="6.63598">
        <ele>989</ele>
        <time>2011-06-14T16:45:56Z</time>
      </trkpt>
      <trkpt lat="46.02928" lon="6.63577">
        <ele>997</ele>
        <time>2011-06-14T16:46:12Z</time>
      </trkpt>
      <trkpt lat="46.02997" lon="6.63553">
        <ele>1002</ele>
        <time>2011-06-14T16:46:28Z</time>
      </trkpt>
      <trkpt lat="46.03082" lon="6.63551">
        <ele>1010</ele>
        <time>2011-06-14T16:46:44Z</time>
      </trkpt>
      <trkpt lat="46.03152" lon="6.63632">
        <ele>1025</ele>
        <time>2011-06-14T16:47:00Z</time>
      </trkpt>
      <trkpt lat="46.03237" lon="6.63699">
        <ele>1052</ele>
        <time>2011-06-14T16:47:32Z</time>
      </trkpt>
      <trkpt lat="46.03243" lon="6.6362">
        <ele>1050</ele>
        <time>2011-06-14T16:47:48Z</time>
      </trkpt>
      <trkpt lat="46.03274" lon="6.6353">
        <ele>1027</ele>
        <time>2011-06-14T16:48:04Z</time>
      </trkpt>
      <trkpt lat="46.033" lon="6.63475">
        <ele>1039</ele>
        <time>2011-06-14T16:48:20Z</time>
      </trkpt>
      <trkpt lat="46.03341" lon="6.63417">
        <ele>1045</ele>
        <time>2011-06-14T16:48:36Z</time>
      </trkpt>
      <trkpt lat="46.03412" lon="6.63344">
        <ele>1052</ele>
        <time>2011-06-14T16:48:52Z</time>
      </trkpt>
      <trkpt lat="46.03422" lon="6.63257">
        <ele>1031</ele>
        <time>2011-06-14T16:49:08Z</time>
      </trkpt>
      <trkpt lat="46.03436" lon="6.63213">
        <ele>1033</ele>
        <time>2011-06-14T16:49:24Z</time>
      </trkpt>
      <trkpt lat="46.03476" lon="6.63164">
        <ele>1043</ele>
        <time>2011-06-14T16:49:40Z</time>
      </trkpt>
      <trkpt lat="46.03508" lon="6.63113">
        <ele>1043</ele>
        <time>2011-06-14T16:49:56Z</time>
      </trkpt>
      <trkpt lat="46.03534" lon="6.63056">
        <ele>1043</ele>
        <time>2011-06-14T16:50:12Z</time>
      </trkpt>
      <trkpt lat="46.0357" lon="6.62965">
        <ele>1043</ele>
        <time>2011-06-14T16:50:44Z</time>
      </trkpt>
      <trkpt lat="46.03671" lon="6.62837">
        <ele>1037</ele>
        <time>2011-06-14T16:51:00Z</time>
      </trkpt>
      <trkpt lat="46.03782" lon="6.62803">
        <ele>1013</ele>
        <time>2011-06-14T16:51:16Z</time>
      </trkpt>
      <trkpt lat="46.03915" lon="6.62891">
        <ele>986</ele>
        <time>2011-06-14T16:51:32Z</time>
      </trkpt>
      <trkpt lat="46.04005" lon="6.62961">
        <ele>978</ele>
        <time>2011-06-14T16:51:48Z</time>
      </trkpt>
      <trkpt lat="46.04074" lon="6.63011">
        <ele>976</ele>
        <time>2011-06-14T16:52:04Z</time>
      </trkpt>
      <trkpt lat="46.0415" lon="6.63051">
        <ele>978</ele>
        <time>2011-06-14T16:52:20Z</time>
      </trkpt>
      <trkpt lat="46.04259" lon="6.6291">
        <ele>982</ele>
        <time>2011-06-14T16:53:24Z</time>
      </trkpt>
      <trkpt lat="46.04259" lon="6.62851">
        <ele>986</ele>
        <time>2011-06-14T16:53:40Z</time>
      </trkpt>
      <trkpt lat="46.04248" lon="6.62791">
        <ele>986</ele>
        <time>2011-06-14T16:53:56Z</time>
      </trkpt>
      <trkpt lat="46.04212" lon="6.62692">
        <ele>991</ele>
        <time>2011-06-14T16:54:28Z</time>
      </trkpt>
      <trkpt lat="46.04211" lon="6.62653">
        <ele>994</ele>
        <time>2011-06-14T16:54:44Z</time>
      </trkpt>
      <trkpt lat="46.04213" lon="6.6266">
        <ele>1001</ele>
        <time>2011-06-14T16:55:33Z</time>
      </trkpt>
      <trkpt lat="46.04196" lon="6.62675">
        <ele>1003</ele>
        <time>2011-06-14T16:55:49Z</time>
      </trkpt>
      <trkpt lat="46.04183" lon="6.62672">
        <ele>1006</ele>
        <time>2011-06-14T16:56:05Z</time>
      </trkpt>
      <trkpt lat="46.04121" lon="6.62642">
        <ele>1013</ele>
        <time>2011-06-14T16:56:37Z</time>
      </trkpt>
      <trkpt lat="46.04071" lon="6.62562">
        <ele>1021</ele>
        <time>2011-06-14T16:57:09Z</time>
      </trkpt>
      <trkpt lat="46.0404" lon="6.62462">
        <ele>1028</ele>
        <time>2011-06-14T16:57:25Z</time>
      </trkpt>
      <trkpt lat="46.04014" lon="6.62376">
        <ele>1029</ele>
        <time>2011-06-14T16:57:41Z</time>
      </trkpt>
      <trkpt lat="46.04004" lon="6.62324">
        <ele>1032</ele>
        <time>2011-06-14T16:57:57Z</time>
      </trkpt>
      <trkpt lat="46.03989" lon="6.62305">
        <ele>1033</ele>
        <time>2011-06-14T16:58:29Z</time>
      </trkpt>
      <trkpt lat="46.03927" lon="6.62316">
        <ele>1037</ele>
        <time>2011-06-14T16:58:45Z</time>
      </trkpt>
      <trkpt lat="46.03869" lon="6.62271">
        <ele>1041</ele>
        <time>2011-06-14T16:59:01Z</time>
      </trkpt>
      <trkpt lat="46.03824" lon="6.62278">
        <ele>1042</ele>
        <time>2011-06-14T16:59:17Z</time>
      </trkpt>
      <trkpt lat="46.03785" lon="6.62307">
        <ele>1041</ele>
        <time>2011-06-14T16:59:33Z</time>
      </trkpt>
      <trkpt lat="46.03727" lon="6.62343">
        <ele>1039</ele>
        <time>2011-06-14T17:00:05Z</time>
      </trkpt>
      <trkpt lat="46.03699" lon="6.62346">
        <ele>1039</ele>
        <time>2011-06-14T17:00:21Z</time>
      </trkpt>
      <trkpt lat="46.03664" lon="6.62375">
        <ele>1045</ele>
        <time>2011-06-14T17:01:41Z</time>
      </trkpt>
      <trkpt lat="46.03645" lon="6.62391">
        <ele>1052</ele>
        <time>2011-06-14T17:02:29Z</time>
      </trkpt>
      <trkpt lat="46.03636" lon="6.62398">
        <ele>1055</ele>
        <time>2011-06-14T17:02:45Z</time>
      </trkpt>
      <trkpt lat="46.03615" lon="6.62406">
        <ele>1058</ele>
        <time>2011-06-14T17:03:17Z</time>
      </trkpt>
      <trkpt lat="46.0361" lon="6.62408">
        <ele>1058</ele>
        <time>2011-06-14T17:03:49Z</time>
      </trkpt>
      <trkpt lat="46.03598" lon="6.62453">
        <ele>1062</ele>
        <time>2011-06-14T17:05:25Z</time>
      </trkpt>
      <trkpt lat="46.03567" lon="6.62575">
        <ele>1064</ele>
        <time>2011-06-14T17:05:57Z</time>
      </trkpt>
      <trkpt lat="46.03532" lon="6.62753">
        <ele>1064</ele>
        <time>2011-06-14T17:06:29Z</time>
      </trkpt>
      <trkpt lat="46.03491" lon="6.628">
        <ele>1066</ele>
        <time>2011-06-14T17:06:45Z</time>
      </trkpt>
      <trkpt lat="46.03405" lon="6.62716">
        <ele>1066</ele>
        <time>2011-06-14T17:07:01Z</time>
      </trkpt>
      <trkpt lat="46.03367" lon="6.6268">
        <ele>1064</ele>
        <time>2011-06-14T17:07:17Z</time>
      </trkpt>
      <trkpt lat="46.03306" lon="6.62641">
        <ele>1065</ele>
        <time>2011-06-14T17:07:33Z</time>
      </trkpt>
      <trkpt lat="46.03226" lon="6.62611">
        <ele>1069</ele>
        <time>2011-06-14T17:08:53Z</time>
      </trkpt>
      <trkpt lat="46.03135" lon="6.62596">
        <ele>1064</ele>
        <time>2011-06-14T17:09:09Z</time>
      </trkpt>
      <trkpt lat="46.03075" lon="6.62632">
        <ele>1059</ele>
        <time>2011-06-14T17:09:25Z</time>
      </trkpt>
      <trkpt lat="46.0301" lon="6.62686">
        <ele>1060</ele>
        <time>2011-06-14T17:09:57Z</time>
      </trkpt>
      <trkpt lat="46.02979" lon="6.62711">
        <ele>1061</ele>
        <time>2011-06-14T17:10:13Z</time>
      </trkpt>
      <trkpt lat="46.02965" lon="6.62772">
        <ele>1062</ele>
        <time>2011-06-14T17:10:45Z</time>
      </trkpt>
      <trkpt lat="46.02952" lon="6.62819">
        <ele>1063</ele>
        <time>2011-06-14T17:11:01Z</time>
      </trkpt>
      <trkpt lat="46.02934" lon="6.62855">
        <ele>1064</ele>
        <time>2011-06-14T17:11:17Z</time>
      </trkpt>
      <trkpt lat="46.02891" lon="6.62911">
        <ele>1067</ele>
        <time>2011-06-14T17:11:33Z</time>
      </trkpt>
      <trkpt lat="46.02823" lon="6.62951">
        <ele>1069</ele>
        <time>2011-06-14T17:11:49Z</time>
      </trkpt>
      <trkpt lat="46.02703" lon="6.62984">
        <ele>1072</ele>
        <time>2011-06-14T17:12:21Z</time>
      </trkpt>
      <trkpt lat="46.02623" lon="6.63016">
        <ele>1074</ele>
        <time>2011-06-14T17:12:53Z</time>
      </trkpt>
      <trkpt lat="46.02581" lon="6.63042">
        <ele>1079</ele>
        <time>2011-06-14T17:13:25Z</time>
      </trkpt>
      <trkpt lat="46.02542" lon="6.63064">
        <ele>1082</ele>
        <time>2011-06-14T17:13:57Z</time>
      </trkpt>
      <trkpt lat="46.02511" lon="6.63097">
        <ele>1084</ele>
        <time>2011-06-14T17:14:29Z</time>
      </trkpt>
      <trkpt lat="46.02484" lon="6.63126">
        <ele>1086</ele>
        <time>2011-06-14T17:14:45Z</time>
      </trkpt>
      <trkpt lat="46.02451" lon="6.63127">
        <ele>1088</ele>
        <time>2011-06-14T17:15:01Z</time>
      </trkpt>
      <trkpt lat="46.02413" lon="6.63154">
        <ele>1094</ele>
        <time>2011-06-14T17:15:17Z</time>
      </trkpt>
      <trkpt lat="46.02373" lon="6.63206">
        <ele>1098</ele>
        <time>2011-06-14T17:15:33Z</time>
      </trkpt>
      <trkpt lat="46.02416" lon="6.63203">
        <ele>1103</ele>
        <time>2011-06-14T17:15:49Z</time>
      </trkpt>
      <trkpt lat="46.02463" lon="6.63223">
        <ele>1106</ele>
        <time>2011-06-14T17:16:05Z</time>
      </trkpt>
      <trkpt lat="46.02486" lon="6.63308">
        <ele>1108</ele>
        <time>2011-06-14T17:16:21Z</time>
      </trkpt>
      <trkpt lat="46.02561" lon="6.63312">
        <ele>1120</ele>
        <time>2011-06-14T17:16:37Z</time>
      </trkpt>
      <trkpt lat="46.02617" lon="6.63348">
        <ele>1123</ele>
        <time>2011-06-14T17:16:53Z</time>
      </trkpt>
      <trkpt lat="46.0262" lon="6.63475">
        <ele>1114</ele>
        <time>2011-06-14T17:17:09Z</time>
      </trkpt>
      <trkpt lat="46.02695" lon="6.63545">
        <ele>1121</ele>
        <time>2011-06-14T17:17:25Z</time>
      </trkpt>
      <trkpt lat="46.02865" lon="6.63689">
        <ele>1120</ele>
        <time>2011-06-14T17:17:57Z</time>
      </trkpt>
      <trkpt lat="46.02885" lon="6.63725">
        <ele>1117</ele>
        <time>2011-06-14T17:18:29Z</time>
      </trkpt>
    </trkseg>
  </trk>
</gpx>